createdAt,value
2018-06-24T00:02:10.953Z,21.70
2018-06-24T00:04:39.294Z,21.70
2018-06-24T00:07:07.585Z,21.70
2018-06-24T00:09:35.848Z,21.60
2018-06-24T00:12:04.160Z,21.60
2018-06-24T00:14:32.441Z,21.60
2018-06-24T00:17:00.842Z,21.60
2018-06-24T00:19:29.093Z,21.60
2018-06-24T00:21:57.885Z,21.60
2018-06-24T00:27:17.070Z,21.50
2018-06-24T00:29:45.383Z,21.50
2018-06-24T00:32:13.659Z,21.40
2018-06-24T00:34:41.921Z,21.40
2018-06-24T00:37:10.293Z,21.40
2018-06-24T00:39:38.820Z,21.30
2018-06-24T00:42:07.121Z,21.30
2018-06-24T00:44:35.381Z,21.30
2018-06-24T00:47:03.680Z,21.30
2018-06-24T00:49:32.025Z,21.20
2018-06-24T00:52:00.243Z,21.20
2018-06-24T00:54:28.493Z,21.20
2018-06-24T00:56:56.793Z,21.20
2018-06-24T00:59:36.457Z,21.20
2018-06-24T01:02:04.684Z,21.20
2018-06-24T01:09:28.955Z,21.10
2018-06-24T01:11:57.276Z,21.00
2018-06-24T01:14:25.532Z,21.00
2018-06-24T01:16:53.788Z,21.00
2018-06-24T01:19:22.069Z,20.90
2018-06-24T01:21:50.334Z,20.90
2018-06-24T01:24:18.625Z,20.90
2018-06-24T01:26:46.897Z,20.90
2018-06-24T01:29:15.157Z,20.80
2018-06-24T01:31:43.436Z,20.80
2018-06-24T01:34:11.715Z,20.80
2018-06-24T01:36:40.048Z,20.80
2018-06-24T01:39:08.329Z,20.80
2018-06-24T01:41:36.593Z,20.80
2018-06-24T01:44:04.886Z,20.70
2018-06-24T01:46:33.225Z,20.70
2018-06-24T01:49:01.478Z,20.70
2018-06-24T01:51:29.997Z,20.60
2018-06-24T01:53:58.323Z,20.60
2018-06-24T01:56:26.566Z,20.60
2018-06-24T01:58:54.817Z,20.60
2018-06-24T02:01:23.252Z,20.50
2018-06-24T02:03:51.527Z,20.50
2018-06-24T02:06:19.840Z,20.50
2018-06-24T02:08:48.114Z,20.50
2018-06-24T02:11:16.377Z,20.50
2018-06-24T02:13:44.768Z,20.40
2018-06-24T02:16:13.041Z,20.40
2018-06-24T02:18:41.322Z,20.40
2018-06-24T02:21:09.593Z,20.40
2018-06-24T02:23:37.921Z,20.40
2018-06-24T02:26:06.205Z,20.30
2018-06-24T02:28:34.554Z,20.30
2018-06-24T02:31:02.830Z,20.30
2018-06-24T02:33:31.089Z,20.20
2018-06-24T02:35:59.386Z,20.20
2018-06-24T02:38:27.637Z,20.20
2018-06-24T02:40:55.871Z,20.20
2018-06-24T02:43:24.126Z,20.20
2018-06-24T02:45:52.367Z,20.20
2018-06-24T02:48:20.662Z,20.10
2018-06-24T02:50:48.926Z,20.10
2018-06-24T02:53:17.197Z,20.10
2018-06-24T02:55:45.503Z,20.00
2018-06-24T02:58:13.833Z,20.00
2018-06-24T03:00:42.151Z,20.00
2018-06-24T03:03:10.401Z,20.00
2018-06-24T03:05:38.689Z,19.90
2018-06-24T03:08:07.101Z,19.90
2018-06-24T03:10:35.642Z,19.90
2018-06-24T03:13:04.089Z,19.90
2018-06-24T03:15:32.341Z,19.90
2018-06-24T03:18:00.656Z,19.80
2018-06-24T03:20:28.921Z,19.80
2018-06-24T03:22:57.193Z,19.80
2018-06-24T03:25:25.472Z,19.80
2018-06-24T03:27:53.753Z,19.70
2018-06-24T03:30:22.030Z,19.70
2018-06-24T03:32:50.339Z,19.70
2018-06-24T03:35:18.632Z,19.70
2018-06-24T03:37:46.919Z,19.70
2018-06-24T03:40:15.300Z,19.70
2018-06-24T03:42:44.304Z,19.60
2018-06-24T03:45:12.608Z,19.70
2018-06-24T03:47:40.853Z,19.60
2018-06-24T03:52:37.273Z,19.50
2018-06-24T03:55:05.612Z,19.50
2018-06-24T03:57:33.970Z,19.50
2018-06-24T04:00:02.243Z,19.50
2018-06-24T04:02:30.578Z,19.40
2018-06-24T04:04:58.849Z,19.40
2018-06-24T04:07:27.269Z,19.40
2018-06-24T04:09:55.592Z,19.40
2018-06-24T04:12:23.874Z,19.50
2018-06-24T04:14:52.170Z,19.40
2018-06-24T04:17:20.466Z,19.40
2018-06-24T04:19:48.710Z,19.30
2018-06-24T04:22:16.994Z,19.30
2018-06-24T04:24:45.287Z,19.30
2018-06-24T04:27:13.608Z,19.30
2018-06-24T04:29:41.880Z,19.30
2018-06-24T04:32:10.165Z,19.30
2018-06-24T04:34:38.456Z,19.20
2018-06-24T04:37:06.761Z,19.20
2018-06-24T04:39:35.061Z,19.20
2018-06-24T04:42:03.350Z,19.20
2018-06-24T04:44:31.620Z,19.20
2018-06-24T04:46:59.884Z,19.20
2018-06-24T04:49:28.175Z,19.20
2018-06-24T04:51:56.461Z,19.10
2018-06-24T04:54:24.741Z,19.10
2018-06-24T04:56:53.013Z,19.10
2018-06-24T04:59:21.290Z,19.10
2018-06-24T05:01:49.565Z,19.10
2018-06-24T05:04:17.852Z,19.10
2018-06-24T05:06:46.106Z,19.10
2018-06-24T05:09:14.368Z,19.10
2018-06-24T05:11:42.616Z,19.10
2018-06-24T05:14:10.952Z,19.10
2018-06-24T05:16:39.218Z,19.10
2018-06-24T05:19:07.488Z,19.10
2018-06-24T05:21:35.769Z,19.10
2018-06-24T05:24:04.059Z,19.10
2018-06-24T05:26:32.330Z,19.10
2018-06-24T05:29:00.609Z,19.10
2018-06-24T05:31:28.868Z,19.10
2018-06-24T05:33:57.201Z,19.10
2018-06-24T05:36:25.460Z,19.10
2018-06-24T05:38:53.742Z,19.00
2018-06-24T05:41:21.995Z,19.00
2018-06-24T05:43:50.250Z,19.00
2018-06-24T05:46:18.549Z,19.00
2018-06-24T05:48:46.911Z,18.90
2018-06-24T05:51:15.109Z,19.00
2018-06-24T05:53:43.427Z,19.00
2018-06-24T05:56:11.719Z,19.00
2018-06-24T05:58:39.960Z,19.00
2018-06-24T06:01:08.230Z,19.00
2018-06-24T06:03:36.544Z,19.00
2018-06-24T06:06:04.987Z,19.00
2018-06-24T06:08:33.275Z,19.00
2018-06-24T06:11:01.556Z,19.10
2018-06-24T06:13:29.805Z,19.00
2018-06-24T06:15:58.092Z,19.00
2018-06-24T06:18:26.363Z,19.00
2018-06-24T06:20:54.670Z,19.10
2018-06-24T06:23:22.973Z,19.10
2018-06-24T06:25:51.302Z,19.10
2018-06-24T06:28:19.602Z,19.20
2018-06-24T06:30:47.919Z,19.20
2018-06-24T06:33:16.257Z,19.00
2018-06-24T06:35:44.513Z,18.90
2018-06-24T06:38:12.785Z,18.90
2018-06-24T06:40:41.044Z,18.90
2018-06-24T06:43:09.296Z,18.90
2018-06-24T06:45:37.665Z,19.00
2018-06-24T06:48:05.996Z,19.10
2018-06-24T06:50:34.253Z,19.10
2018-06-24T06:53:02.570Z,19.20
2018-06-24T06:55:30.838Z,19.20
2018-06-24T06:57:59.162Z,19.30
2018-06-24T07:00:27.466Z,19.30
2018-06-24T07:02:55.849Z,19.30
2018-06-24T07:05:24.104Z,19.30
2018-06-24T07:07:52.352Z,19.40
2018-06-24T07:10:20.594Z,19.40
2018-06-24T07:12:48.900Z,19.50
2018-06-24T07:15:17.148Z,19.40
2018-06-24T07:17:45.434Z,19.50
2018-06-24T07:20:13.718Z,19.50
2018-06-24T07:22:41.949Z,19.50
2018-06-24T07:25:10.216Z,19.50
2018-06-24T07:27:38.524Z,19.50
2018-06-24T07:30:06.764Z,19.50
2018-06-24T07:32:35.042Z,19.50
2018-06-24T07:35:03.333Z,19.60
2018-06-24T07:37:31.619Z,19.60
2018-06-24T07:39:59.911Z,19.50
2018-06-24T07:42:28.157Z,19.50
2018-06-24T07:44:56.441Z,19.60
2018-06-24T07:47:24.675Z,19.60
2018-06-24T07:49:52.940Z,19.60
2018-06-24T07:52:21.217Z,19.60
2018-06-24T07:54:49.505Z,19.70
2018-06-24T07:57:17.785Z,19.60
2018-06-24T07:59:45.994Z,19.60
2018-06-24T08:02:14.299Z,19.70
2018-06-24T08:04:42.573Z,19.70
2018-06-24T08:07:10.881Z,19.70
2018-06-24T08:09:39.158Z,19.80
2018-06-24T08:12:07.463Z,19.80
2018-06-24T08:14:35.720Z,19.80
2018-06-24T08:17:04.029Z,19.80
2018-06-24T08:19:32.260Z,19.50
2018-06-24T08:22:00.521Z,19.50
2018-06-24T08:26:56.786Z,19.70
2018-06-24T08:29:25.053Z,19.70
2018-06-24T08:34:21.305Z,19.70
2018-06-24T08:36:49.599Z,19.80
2018-06-24T08:39:17.872Z,19.80
2018-06-24T08:41:46.176Z,19.80
2018-06-24T08:44:14.451Z,19.70
2018-06-24T08:46:42.733Z,19.80
2018-06-24T08:49:10.994Z,19.70
2018-06-24T08:51:39.256Z,19.80
2018-06-24T08:54:07.512Z,19.90
2018-06-24T08:56:35.809Z,20.00
2018-06-24T08:59:04.062Z,19.80
2018-06-24T09:01:32.324Z,19.80
2018-06-24T09:04:00.601Z,19.70
2018-06-24T09:06:28.904Z,19.80
2018-06-24T09:08:57.188Z,19.90
2018-06-24T09:11:25.533Z,20.00
2018-06-24T09:13:53.805Z,20.10
2018-06-24T09:16:22.057Z,20.10
2018-06-24T09:18:50.312Z,20.20
2018-06-24T09:21:18.618Z,20.30
2018-06-24T09:23:46.860Z,20.20
2018-06-24T09:26:15.137Z,20.30
2018-06-24T09:28:43.420Z,20.30
2018-06-24T09:31:11.678Z,20.40
2018-06-24T09:33:39.977Z,20.40
2018-06-24T09:36:08.289Z,20.50
2018-06-24T09:38:36.575Z,20.50
2018-06-24T09:41:04.888Z,20.50
2018-06-24T09:43:33.084Z,20.50
2018-06-24T09:46:01.582Z,20.50
2018-06-24T09:48:29.846Z,20.60
2018-06-24T09:50:58.104Z,20.60
2018-06-24T09:53:26.381Z,20.60
2018-06-24T09:55:54.645Z,20.70
2018-06-24T09:58:22.925Z,20.70
2018-06-24T10:00:51.216Z,20.60
2018-06-24T10:03:19.524Z,20.60
2018-06-24T10:05:47.738Z,20.40
2018-06-24T10:08:16.097Z,20.30
2018-06-24T10:10:44.357Z,20.20
2018-06-24T10:13:12.605Z,20.20
2018-06-24T10:15:40.981Z,20.40
2018-06-24T10:18:09.265Z,20.50
2018-06-24T10:20:37.657Z,20.50
2018-06-24T10:23:05.861Z,20.50
2018-06-24T10:25:34.141Z,20.60
2018-06-24T10:28:02.404Z,20.70
2018-06-24T10:30:30.705Z,20.80
2018-06-24T10:32:58.993Z,20.90
2018-06-24T10:35:27.252Z,20.90
2018-06-24T10:37:55.520Z,21.00
2018-06-24T10:40:23.774Z,20.80
2018-06-24T10:42:52.100Z,20.80
2018-06-24T10:45:20.378Z,20.90
2018-06-24T10:47:48.664Z,20.90
2018-06-24T10:50:16.925Z,21.00
2018-06-24T10:52:45.209Z,21.10
2018-06-24T10:55:13.497Z,21.20
2018-06-24T10:57:41.759Z,20.90
2018-06-24T11:00:10.078Z,20.80
2018-06-24T11:02:38.353Z,20.90
2018-06-24T11:05:06.624Z,21.00
2018-06-24T11:07:34.860Z,21.00
2018-06-24T11:10:03.156Z,20.90
2018-06-24T11:12:31.409Z,21.00
2018-06-24T11:15:00.221Z,20.90
2018-06-24T11:17:28.554Z,20.90
2018-06-24T11:19:56.824Z,21.00
2018-06-24T11:22:25.280Z,21.00
2018-06-24T11:24:53.528Z,21.10
2018-06-24T11:29:49.765Z,21.20
2018-06-24T11:32:18.057Z,21.00
2018-06-24T11:34:46.328Z,21.10
2018-06-24T11:37:14.593Z,21.10
2018-06-24T11:39:42.902Z,21.20
2018-06-24T11:42:11.141Z,21.20
2018-06-24T11:44:39.436Z,21.20
2018-06-24T11:47:07.678Z,21.30
2018-06-24T11:49:36.001Z,21.30
2018-06-24T11:52:04.313Z,21.40
2018-06-24T11:54:32.554Z,21.40
2018-06-24T11:57:00.993Z,21.40
2018-06-24T11:59:29.164Z,21.50
2018-06-24T12:01:57.443Z,21.50
2018-06-24T12:04:25.857Z,21.50
2018-06-24T12:06:54.237Z,21.50
2018-06-24T12:09:22.428Z,21.50
2018-06-24T12:11:50.742Z,21.40
2018-06-24T12:14:19.019Z,21.40
2018-06-24T12:16:47.352Z,21.50
2018-06-24T12:19:15.599Z,21.50
2018-06-24T12:21:43.860Z,21.60
2018-06-24T12:24:12.124Z,21.70
2018-06-24T12:26:40.405Z,21.80
2018-06-24T12:29:08.662Z,21.90
2018-06-24T12:31:36.920Z,21.80
2018-06-24T12:34:05.321Z,21.80
2018-06-24T12:36:37.298Z,21.90
2018-06-24T12:39:08.563Z,21.90
2018-06-24T12:41:36.789Z,22.00
2018-06-24T12:44:11.858Z,22.00
2018-06-24T12:46:40.176Z,21.90
2018-06-24T12:49:08.737Z,22.00
2018-06-24T12:51:38.122Z,22.10
2018-06-24T12:54:06.816Z,22.10
2018-06-24T12:59:03.136Z,21.90
2018-06-24T13:01:31.413Z,22.00
2018-06-24T13:03:59.763Z,22.00
2018-06-24T13:06:28.096Z,22.10
2018-06-24T13:08:56.596Z,21.90
2018-06-24T13:11:25.216Z,22.00
2018-06-24T13:13:53.477Z,22.10
2018-06-24T13:18:49.877Z,22.20
2018-06-24T13:21:18.211Z,22.30
2018-06-24T13:23:46.454Z,22.40
2018-06-24T13:26:14.750Z,22.30
2018-06-24T13:28:43.001Z,22.40
2018-06-24T13:33:39.321Z,22.30
2018-06-24T13:36:07.825Z,22.30
2018-06-24T13:38:36.143Z,22.30
2018-06-24T13:41:04.426Z,22.40
2018-06-24T13:43:32.756Z,22.20
2018-06-24T13:46:01.008Z,21.90
2018-06-24T13:48:29.269Z,21.90
2018-06-24T13:50:57.536Z,22.10
2018-06-24T13:53:25.790Z,22.20
2018-06-24T13:55:54.092Z,22.10
2018-06-24T13:58:22.341Z,22.30
2018-06-24T14:03:18.956Z,22.40
2018-06-24T14:05:47.260Z,22.40
2018-06-24T14:08:15.517Z,22.30
2018-06-24T14:10:43.809Z,22.20
2018-06-24T14:13:12.095Z,22.30
2018-06-24T14:15:40.411Z,22.20
2018-06-24T14:18:08.700Z,22.40
2018-06-24T14:20:36.938Z,22.40
2018-06-24T14:23:12.251Z,22.40
2018-06-24T14:25:40.445Z,22.30
2018-06-24T14:28:08.716Z,22.40
2018-06-24T14:30:37.031Z,22.40
2018-06-24T14:33:05.302Z,22.50
2018-06-24T14:35:33.584Z,22.50
2018-06-24T14:38:01.829Z,22.40
2018-06-24T14:40:30.145Z,22.20
2018-06-24T14:42:58.441Z,22.30
2018-06-24T14:45:26.711Z,22.30
2018-06-24T14:47:55.042Z,22.40
2018-06-24T14:50:23.328Z,22.10
2018-06-24T14:52:51.637Z,22.10
2018-06-24T14:55:19.940Z,22.20
2018-06-24T14:57:48.379Z,22.30
2018-06-24T15:00:16.657Z,22.30
2018-06-24T15:02:44.971Z,22.30
2018-06-24T15:05:13.424Z,22.20
2018-06-24T15:07:42.488Z,22.20
2018-06-24T15:10:10.777Z,22.30
2018-06-24T15:12:39.012Z,22.10
2018-06-24T15:15:07.344Z,22.20
2018-06-24T15:17:35.656Z,22.30
2018-06-24T15:20:03.988Z,22.20
2018-06-24T15:22:32.220Z,22.30
2018-06-24T15:25:00.579Z,22.40
2018-06-24T15:27:28.844Z,22.20
2018-06-24T15:29:57.285Z,22.30
2018-06-24T15:32:25.629Z,22.40
2018-06-24T15:34:53.898Z,22.50
2018-06-24T15:37:22.533Z,22.70
2018-06-24T15:39:50.808Z,22.70
2018-06-24T15:42:19.201Z,22.70
2018-06-24T15:44:47.632Z,22.70
2018-06-24T15:47:16.049Z,22.70
2018-06-24T15:49:44.394Z,22.70
2018-06-24T15:52:12.720Z,22.60
2018-06-24T15:54:40.985Z,22.60
2018-06-24T15:57:09.314Z,22.60
2018-06-24T15:59:37.764Z,22.60
2018-06-24T16:02:06.701Z,22.60
2018-06-24T16:04:34.925Z,22.50
2018-06-24T16:07:03.196Z,22.50
2018-06-24T16:09:31.477Z,22.40
2018-06-24T16:11:59.718Z,22.50
2018-06-24T16:14:27.996Z,22.40
2018-06-24T16:16:56.287Z,22.40
2018-06-24T16:19:24.540Z,22.40
2018-06-24T16:21:52.765Z,22.40
2018-06-24T16:24:21.302Z,22.50
2018-06-24T16:26:49.621Z,22.60
2018-06-24T16:29:18.529Z,22.70
2018-06-24T16:31:47.149Z,22.70
2018-06-24T16:34:15.417Z,22.70
2018-06-24T16:36:43.693Z,22.60
2018-06-24T16:39:13.093Z,22.60
2018-06-24T16:41:41.406Z,22.60
2018-06-24T16:44:09.820Z,22.60
2018-06-24T16:46:38.082Z,22.70
2018-06-24T16:49:06.385Z,22.70
2018-06-24T16:51:34.945Z,22.70
2018-06-24T16:54:03.201Z,22.40
2018-06-24T16:56:31.496Z,22.40
2018-06-24T16:58:59.789Z,22.50
2018-06-24T17:01:28.308Z,22.50
2018-06-24T17:03:56.663Z,22.50
2018-06-24T17:06:24.968Z,22.50
2018-06-24T17:08:53.234Z,22.50
2018-06-24T17:11:21.464Z,22.60
2018-06-24T17:13:49.989Z,22.50
2018-06-24T17:16:18.388Z,22.60
2018-06-24T17:18:46.849Z,22.60
2018-06-24T17:21:15.232Z,22.70
2018-06-24T17:23:43.504Z,22.70
2018-06-24T17:26:11.769Z,22.70
2018-06-24T17:28:40.062Z,22.70
2018-06-24T17:31:08.424Z,22.60
2018-06-24T17:33:36.690Z,22.50
2018-06-24T17:36:04.983Z,22.50
2018-06-24T17:38:33.426Z,22.40
2018-06-24T17:41:01.720Z,22.50
2018-06-24T17:43:30.217Z,22.30
2018-06-24T17:45:58.526Z,22.20
2018-06-24T17:48:26.731Z,22.20
2018-06-24T17:50:55.001Z,22.20
2018-06-24T17:53:23.292Z,22.10
2018-06-24T17:55:51.568Z,22.20
2018-06-24T17:58:19.825Z,22.20
2018-06-24T18:00:48.282Z,22.20
2018-06-24T18:03:16.576Z,22.20
2018-06-24T18:05:44.885Z,22.10
2018-06-24T18:08:13.209Z,22.20
2018-06-24T18:10:41.462Z,22.20
2018-06-24T18:13:09.776Z,22.20
2018-06-24T18:15:38.084Z,22.20
2018-06-24T18:18:06.385Z,22.10
2018-06-24T18:20:34.775Z,22.20
2018-06-24T18:23:03.139Z,22.20
2018-06-24T18:25:31.403Z,22.20
2018-06-24T18:27:59.661Z,22.10
2018-06-24T18:32:55.981Z,22.00
2018-06-24T18:35:24.402Z,22.00
2018-06-24T18:37:52.896Z,22.00
2018-06-24T18:40:21.222Z,22.00
2018-06-24T18:42:49.541Z,22.00
2018-06-24T18:47:45.844Z,22.00
2018-06-24T18:50:14.093Z,22.00
2018-06-24T18:52:42.370Z,21.90
2018-06-24T18:55:10.687Z,22.00
2018-06-24T18:57:38.997Z,21.90
2018-06-24T19:00:07.466Z,21.90
2018-06-24T19:02:35.914Z,21.90
2018-06-24T19:05:04.418Z,21.90
2018-06-24T19:07:32.669Z,21.80
2018-06-24T19:10:00.927Z,21.80
2018-06-24T19:12:29.189Z,21.70
2018-06-24T19:14:57.448Z,21.70
2018-06-24T19:17:25.828Z,21.70
2018-06-24T19:19:54.088Z,21.70
2018-06-24T19:22:22.404Z,21.70
2018-06-24T19:24:50.717Z,21.70
2018-06-24T19:27:19.077Z,21.70
2018-06-24T19:29:47.410Z,21.70
2018-06-24T19:32:15.752Z,21.60
2018-06-24T19:34:44.028Z,21.60
2018-06-24T19:37:12.305Z,21.60
2018-06-24T19:39:40.609Z,21.60
2018-06-24T19:42:08.916Z,21.50
2018-06-24T19:47:05.157Z,21.50
2018-06-24T19:49:33.524Z,21.50
2018-06-24T19:52:01.772Z,21.50
2018-06-24T19:54:30.042Z,21.50
2018-06-24T19:56:58.358Z,21.50
2018-06-24T19:59:26.588Z,21.50
2018-06-24T20:01:54.888Z,21.50
2018-06-24T20:04:23.181Z,21.50
2018-06-24T20:06:51.469Z,21.40
2018-06-24T20:09:19.798Z,21.30
2018-06-24T20:11:48.109Z,21.30
2018-06-24T20:14:16.450Z,21.30
2018-06-24T20:16:45.649Z,21.30
2018-06-24T20:19:13.917Z,21.30
2018-06-24T20:21:43.777Z,21.30
2018-06-24T20:24:13.619Z,21.30
2018-06-24T20:26:43.232Z,21.30
2018-06-24T20:29:12.902Z,21.30
2018-06-24T20:31:42.599Z,21.30
2018-06-24T20:34:12.462Z,21.30
2018-06-24T20:36:42.109Z,21.20
2018-06-24T20:39:12.058Z,21.10
2018-06-24T20:41:41.756Z,21.10
2018-06-24T20:44:11.528Z,21.10
2018-06-24T20:46:41.282Z,21.10
2018-06-24T20:49:11.203Z,21.00
2018-06-24T20:51:39.511Z,21.10
2018-06-24T20:54:07.774Z,21.10
2018-06-24T20:56:36.123Z,21.00
2018-06-24T20:59:04.408Z,21.10
2018-06-24T21:01:32.697Z,21.00
2018-06-24T21:04:01.102Z,20.90
2018-06-24T21:06:29.277Z,20.90
2018-06-24T21:08:57.554Z,21.00
2018-06-24T21:11:25.804Z,20.90
2018-06-24T21:13:54.075Z,20.90
2018-06-24T21:16:22.625Z,20.90
2018-06-24T21:18:50.954Z,20.80
2018-06-24T21:21:19.216Z,20.90
2018-06-24T21:23:47.466Z,20.90
2018-06-24T21:26:15.771Z,20.80
2018-06-24T21:28:44.119Z,20.80
2018-06-24T21:31:12.389Z,20.80
2018-06-24T21:33:40.657Z,20.80
2018-06-24T21:36:08.923Z,20.80
2018-06-24T21:38:37.248Z,20.80
2018-06-24T21:43:33.559Z,20.70
2018-06-24T21:46:01.857Z,20.70
2018-06-24T21:48:30.122Z,20.70
2018-06-24T21:50:58.431Z,20.70
2018-06-24T21:53:26.701Z,20.70
2018-06-24T21:55:55.046Z,20.60
2018-06-24T21:58:23.301Z,20.60
2018-06-24T22:00:51.560Z,20.60
2018-06-24T22:03:19.949Z,20.60
2018-06-24T22:05:48.261Z,20.60
2018-06-24T22:08:16.529Z,20.60
2018-06-24T22:10:44.835Z,20.60
2018-06-24T22:13:13.121Z,20.60
2018-06-24T22:15:41.610Z,20.60
2018-06-24T22:18:09.869Z,20.50
2018-06-24T22:20:38.113Z,20.50
2018-06-24T22:23:06.524Z,20.50
2018-06-24T22:25:34.801Z,20.50
2018-06-24T22:28:03.103Z,20.50
2018-06-24T22:30:31.384Z,20.40
2018-06-24T22:32:59.679Z,20.50
2018-06-24T22:35:27.924Z,20.40
2018-06-24T22:37:56.228Z,20.40
2018-06-24T22:40:24.593Z,20.40
2018-06-24T22:42:52.824Z,20.40
2018-06-24T22:45:21.213Z,20.40
2018-06-24T22:47:49.455Z,20.30
2018-06-24T22:50:17.748Z,20.40
2018-06-24T22:52:46.013Z,20.30
2018-06-24T22:57:42.463Z,20.30
2018-06-24T23:00:16.429Z,20.30
2018-06-24T23:02:45.299Z,20.30
2018-06-24T23:05:14.109Z,20.30
2018-06-24T23:07:43.327Z,20.30
2018-06-24T23:10:12.288Z,20.20
2018-06-24T23:12:40.614Z,20.20
2018-06-24T23:15:10.037Z,20.20
2018-06-24T23:17:38.638Z,20.20
2018-06-24T23:22:36.069Z,20.10
2018-06-24T23:25:04.659Z,20.10
2018-06-24T23:27:32.900Z,20.10
2018-06-24T23:30:01.204Z,20.10
2018-06-24T23:32:29.453Z,20.10
2018-06-24T23:34:57.692Z,20.10
2018-06-24T23:37:25.956Z,20.10
2018-06-24T23:39:54.270Z,20.00
2018-06-24T23:42:22.508Z,20.10
2018-06-24T23:44:50.789Z,20.10
2018-06-24T23:47:19.052Z,20.00
2018-06-24T23:49:47.324Z,20.00
2018-06-24T23:52:15.596Z,20.00
2018-06-24T23:54:43.892Z,19.90
2018-06-24T23:57:12.162Z,19.90
2018-06-24T23:59:40.425Z,20.00
